sensor_id;sensor_type;location;lat;lon;timestamp;temperature;humidity
52869;DHT22;39100;53.480;6.158;2023-02-17T00:00:25;8.80;99.90
52869;DHT22;39100;53.480;6.158;2023-02-17T00:02:58;8.70;99.90
52869;DHT22;39100;53.480;6.158;2023-02-17T00:05:24;8.80;99.90
52869;DHT22;39100;53.480;6.158;2023-02-17T00:07:50;8.80;99.90
52869;DHT22;39100;53.480;6.158;2023-02-17T00:10:16;8.80;99.90
52869;DHT22;39100;53.480;6.158;2023-02-17T00:12:42;8.70;99.90
52869;DHT22;39100;53.480;6.158;2023-02-17T00:15:08;8.80;99.90
52869;DHT22;39100;53.480;6.158;2023-02-17T00:17:33;8.80;99.90
52869;DHT22;39100;53.480;6.158;2023-02-17T00:19:59;8.80;99.90
52869;DHT22;39100;53.480;6.158;2023-02-17T00:22:24;8.80;99.90
52869;DHT22;39100;53.480;6.158;2023-02-17T00:24:50;8.80;99.90
52869;DHT22;39100;53.480;6.158;2023-02-17T00:27:16;8.80;99.90
52869;DHT22;39100;53.480;6.158;2023-02-17T00:29:41;8.80;99.90
52869;DHT22;39100;53.480;6.158;2023-02-17T00:32:07;8.80;99.90
52869;DHT22;39100;53.480;6.158;2023-02-17T00:34:34;8.80;99.90
52869;DHT22;39100;53.480;6.158;2023-02-17T00:37:00;8.70;99.90
52869;DHT22;39100;53.480;6.158;2023-02-17T00:39:26;8.80;99.90
52869;DHT22;39100;53.480;6.158;2023-02-17T00:41:51;8.80;99.90
52869;DHT22;39100;53.480;6.158;2023-02-17T00:44:19;8.80;99.90
52869;DHT22;39100;53.480;6.158;2023-02-17T00:46:45;8.70;99.90
52869;DHT22;39100;53.480;6.158;2023-02-17T00:49:19;8.70;99.90
52869;DHT22;39100;53.480;6.158;2023-02-17T00:51:46;8.70;99.90
52869;DHT22;39100;53.480;6.158;2023-02-17T00:54:13;8.70;99.90
52869;DHT22;39100;53.480;6.158;2023-02-17T00:56:39;8.80;99.90
52869;DHT22;39100;53.480;6.158;2023-02-17T00:59:05;8.80;99.90
52869;DHT22;39100;53.480;6.158;2023-02-17T01:01:31;8.70;99.90
52869;DHT22;39100;53.480;6.158;2023-02-17T01:03:57;8.80;99.90
52869;DHT22;39100;53.480;6.158;2023-02-17T01:06:26;8.70;99.90
52869;DHT22;39100;53.480;6.158;2023-02-17T01:08:51;8.70;99.90
52869;DHT22;39100;53.480;6.158;2023-02-17T01:11:22;8.70;99.90
52869;DHT22;39100;53.480;6.158;2023-02-17T01:13:48;8.70;99.90
52869;DHT22;39100;53.480;6.158;2023-02-17T01:16:17;8.70;99.90
52869;DHT22;39100;53.480;6.158;2023-02-17T01:18:43;8.70;99.90
52869;DHT22;39100;53.480;6.158;2023-02-17T01:21:23;8.70;99.90
52869;DHT22;39100;53.480;6.158;2023-02-17T01:23:51;8.60;99.90
52869;DHT22;39100;53.480;6.158;2023-02-17T01:26:20;8.60;99.90
52869;DHT22;39100;53.480;6.158;2023-02-17T01:28:47;8.60;99.90
52869;DHT22;39100;53.480;6.158;2023-02-17T01:31:13;8.60;99.90
52869;DHT22;39100;53.480;6.158;2023-02-17T01:33:39;8.50;99.90
52869;DHT22;39100;53.480;6.158;2023-02-17T01:36:07;8.50;99.90
52869;DHT22;39100;53.480;6.158;2023-02-17T01:38:34;8.50;99.90
52869;DHT22;39100;53.480;6.158;2023-02-17T01:41:00;8.50;99.90
52869;DHT22;39100;53.480;6.158;2023-02-17T01:43:26;8.50;99.90
52869;DHT22;39100;53.480;6.158;2023-02-17T01:45:56;8.50;99.90
52869;DHT22;39100;53.480;6.158;2023-02-17T01:48:45;8.50;99.90
52869;DHT22;39100;53.480;6.158;2023-02-17T01:51:20;8.50;99.90
52869;DHT22;39100;53.480;6.158;2023-02-17T01:54:10;8.60;99.90
52869;DHT22;39100;53.480;6.158;2023-02-17T01:56:39;8.60;99.90
52869;DHT22;39100;53.480;6.158;2023-02-17T01:59:11;8.60;99.90
52869;DHT22;39100;53.480;6.158;2023-02-17T02:01:38;8.60;99.90
52869;DHT22;39100;53.480;6.158;2023-02-17T02:04:05;8.60;99.90
52869;DHT22;39100;53.480;6.158;2023-02-17T02:06:33;8.60;99.90
52869;DHT22;39100;53.480;6.158;2023-02-17T02:09:09;8.60;99.90
52869;DHT22;39100;53.480;6.158;2023-02-17T02:11:36;8.60;99.90
52869;DHT22;39100;53.480;6.158;2023-02-17T02:14:04;8.60;99.90
52869;DHT22;39100;53.480;6.158;2023-02-17T02:16:53;8.60;99.90
52869;DHT22;39100;53.480;6.158;2023-02-17T02:19:51;8.70;99.90
52869;DHT22;39100;53.480;6.158;2023-02-17T02:22:27;8.70;99.90
52869;DHT22;39100;53.480;6.158;2023-02-17T02:33:10;8.70;99.90
52869;DHT22;39100;53.480;6.158;2023-02-17T02:38:40;8.70;99.90
52869;DHT22;39100;53.480;6.158;2023-02-17T02:41:33;8.70;99.90
52869;DHT22;39100;53.480;6.158;2023-02-17T02:43:57;8.70;99.90
52869;DHT22;39100;53.480;6.158;2023-02-17T02:46:23;8.70;99.90
52869;DHT22;39100;53.480;6.158;2023-02-17T02:48:49;8.70;99.90
52869;DHT22;39100;53.480;6.158;2023-02-17T02:51:23;8.70;99.90
52869;DHT22;39100;53.480;6.158;2023-02-17T02:57:15;8.60;99.90
52869;DHT22;39100;53.480;6.158;2023-02-17T03:02:48;8.60;99.90
52869;DHT22;39100;53.480;6.158;2023-02-17T03:05:41;8.60;99.90
52869;DHT22;39100;53.480;6.158;2023-02-17T03:08:16;8.60;99.90
52869;DHT22;39100;53.480;6.158;2023-02-17T03:10:49;8.60;99.90
52869;DHT22;39100;53.480;6.158;2023-02-17T03:13:16;8.60;99.90
52869;DHT22;39100;53.480;6.158;2023-02-17T03:15:42;8.60;99.90
52869;DHT22;39100;53.480;6.158;2023-02-17T03:18:07;8.60;99.90
52869;DHT22;39100;53.480;6.158;2023-02-17T03:20:51;8.60;99.90
52869;DHT22;39100;53.480;6.158;2023-02-17T03:23:17;8.50;99.90
52869;DHT22;39100;53.480;6.158;2023-02-17T03:25:43;8.60;99.90
52869;DHT22;39100;53.480;6.158;2023-02-17T03:28:09;8.60;99.90
52869;DHT22;39100;53.480;6.158;2023-02-17T03:30:35;8.60;99.90
52869;DHT22;39100;53.480;6.158;2023-02-17T03:33:01;8.60;99.90
52869;DHT22;39100;53.480;6.158;2023-02-17T03:35:26;8.60;99.90
52869;DHT22;39100;53.480;6.158;2023-02-17T03:37:52;8.50;99.90
52869;DHT22;39100;53.480;6.158;2023-02-17T03:40:17;8.60;99.90
52869;DHT22;39100;53.480;6.158;2023-02-17T03:42:43;8.60;99.90
52869;DHT22;39100;53.480;6.158;2023-02-17T03:45:09;8.60;99.90
52869;DHT22;39100;53.480;6.158;2023-02-17T03:47:34;8.60;99.90
52869;DHT22;39100;53.480;6.158;2023-02-17T03:50:00;8.60;99.90
52869;DHT22;39100;53.480;6.158;2023-02-17T03:52:25;8.60;99.90
52869;DHT22;39100;53.480;6.158;2023-02-17T03:54:51;8.60;99.90
52869;DHT22;39100;53.480;6.158;2023-02-17T03:57:17;8.60;99.90
52869;DHT22;39100;53.480;6.158;2023-02-17T03:59:43;8.60;99.90
52869;DHT22;39100;53.480;6.158;2023-02-17T04:02:08;8.60;99.90
52869;DHT22;39100;53.480;6.158;2023-02-17T04:04:34;8.60;99.90
52869;DHT22;39100;53.480;6.158;2023-02-17T04:07:00;8.60;99.90
52869;DHT22;39100;53.480;6.158;2023-02-17T04:09:26;8.60;99.90
52869;DHT22;39100;53.480;6.158;2023-02-17T04:11:51;8.60;99.90
52869;DHT22;39100;53.480;6.158;2023-02-17T04:14:17;8.60;99.90
52869;DHT22;39100;53.480;6.158;2023-02-17T04:16:42;8.60;99.90
52869;DHT22;39100;53.480;6.158;2023-02-17T04:19:08;8.50;99.90
52869;DHT22;39100;53.480;6.158;2023-02-17T04:21:34;8.50;99.90
52869;DHT22;39100;53.480;6.158;2023-02-17T04:24:01;8.50;99.90
52869;DHT22;39100;53.480;6.158;2023-02-17T04:26:27;8.50;99.90
52869;DHT22;39100;53.480;6.158;2023-02-17T04:28:53;8.50;99.90
52869;DHT22;39100;53.480;6.158;2023-02-17T04:31:19;8.50;99.90
52869;DHT22;39100;53.480;6.158;2023-02-17T04:33:44;8.50;99.90
52869;DHT22;39100;53.480;6.158;2023-02-17T04:36:10;8.50;99.90
52869;DHT22;39100;53.480;6.158;2023-02-17T04:38:36;8.50;99.90
52869;DHT22;39100;53.480;6.158;2023-02-17T04:41:02;8.50;99.90
52869;DHT22;39100;53.480;6.158;2023-02-17T04:43:28;8.50;99.90
52869;DHT22;39100;53.480;6.158;2023-02-17T04:45:54;8.50;99.90
52869;DHT22;39100;53.480;6.158;2023-02-17T04:48:20;8.50;99.90
52869;DHT22;39100;53.480;6.158;2023-02-17T04:50:45;8.50;99.90
52869;DHT22;39100;53.480;6.158;2023-02-17T04:53:11;8.50;99.90
52869;DHT22;39100;53.480;6.158;2023-02-17T04:55:38;8.50;99.90
52869;DHT22;39100;53.480;6.158;2023-02-17T04:58:04;8.50;99.90
52869;DHT22;39100;53.480;6.158;2023-02-17T05:00:30;8.50;99.90
52869;DHT22;39100;53.480;6.158;2023-02-17T05:02:56;8.50;99.90
52869;DHT22;39100;53.480;6.158;2023-02-17T05:05:22;8.50;99.90
52869;DHT22;39100;53.480;6.158;2023-02-17T05:07:48;8.50;99.90
52869;DHT22;39100;53.480;6.158;2023-02-17T05:10:15;8.50;99.90
52869;DHT22;39100;53.480;6.158;2023-02-17T05:12:41;8.90;99.90
52869;DHT22;39100;53.480;6.158;2023-02-17T05:15:07;8.50;99.90
52869;DHT22;39100;53.480;6.158;2023-02-17T05:17:33;8.50;99.90
52869;DHT22;39100;53.480;6.158;2023-02-17T05:19:59;8.60;99.90
52869;DHT22;39100;53.480;6.158;2023-02-17T05:22:25;8.50;99.90
52869;DHT22;39100;53.480;6.158;2023-02-17T05:24:51;8.60;99.90
52869;DHT22;39100;53.480;6.158;2023-02-17T05:27:17;8.60;99.90
52869;DHT22;39100;53.480;6.158;2023-02-17T05:29:43;8.60;99.90
52869;DHT22;39100;53.480;6.158;2023-02-17T05:32:08;8.60;99.90
52869;DHT22;39100;53.480;6.158;2023-02-17T05:34:34;8.60;99.90
52869;DHT22;39100;53.480;6.158;2023-02-17T05:37:00;8.60;99.90
52869;DHT22;39100;53.480;6.158;2023-02-17T05:39:26;8.60;99.90
52869;DHT22;39100;53.480;6.158;2023-02-17T05:41:51;8.60;99.90
52869;DHT22;39100;53.480;6.158;2023-02-17T05:44:17;8.60;99.90
52869;DHT22;39100;53.480;6.158;2023-02-17T05:46:43;8.60;99.90
52869;DHT22;39100;53.480;6.158;2023-02-17T05:49:09;8.60;99.90
52869;DHT22;39100;53.480;6.158;2023-02-17T05:51:34;8.60;99.90
52869;DHT22;39100;53.480;6.158;2023-02-17T05:54:00;8.60;99.90
52869;DHT22;39100;53.480;6.158;2023-02-17T05:56:25;8.60;99.90
52869;DHT22;39100;53.480;6.158;2023-02-17T05:58:51;8.60;99.90
52869;DHT22;39100;53.480;6.158;2023-02-17T06:01:17;8.60;99.90
52869;DHT22;39100;53.480;6.158;2023-02-17T06:03:42;8.70;99.90
52869;DHT22;39100;53.480;6.158;2023-02-17T06:06:08;8.60;99.90
52869;DHT22;39100;53.480;6.158;2023-02-17T06:08:34;8.60;99.90
52869;DHT22;39100;53.480;6.158;2023-02-17T06:11:00;8.70;99.90
52869;DHT22;39100;53.480;6.158;2023-02-17T06:13:25;8.70;99.90
52869;DHT22;39100;53.480;6.158;2023-02-17T06:15:51;8.70;99.90
52869;DHT22;39100;53.480;6.158;2023-02-17T06:18:16;8.70;99.90
52869;DHT22;39100;53.480;6.158;2023-02-17T06:20:42;8.70;99.90
52869;DHT22;39100;53.480;6.158;2023-02-17T06:23:08;8.70;99.90
52869;DHT22;39100;53.480;6.158;2023-02-17T06:25:33;8.70;99.90
52869;DHT22;39100;53.480;6.158;2023-02-17T06:27:59;8.70;99.90
52869;DHT22;39100;53.480;6.158;2023-02-17T06:30:24;8.80;99.90
52869;DHT22;39100;53.480;6.158;2023-02-17T06:32:50;8.80;99.90
52869;DHT22;39100;53.480;6.158;2023-02-17T06:35:16;8.80;99.90
52869;DHT22;39100;53.480;6.158;2023-02-17T06:37:41;8.80;99.90
52869;DHT22;39100;53.480;6.158;2023-02-17T06:40:08;8.80;99.90
52869;DHT22;39100;53.480;6.158;2023-02-17T06:42:33;8.80;99.90
52869;DHT22;39100;53.480;6.158;2023-02-17T06:44:59;8.80;99.90
52869;DHT22;39100;53.480;6.158;2023-02-17T06:47:31;8.80;99.90
52869;DHT22;39100;53.480;6.158;2023-02-17T06:49:56;8.80;99.90
52869;DHT22;39100;53.480;6.158;2023-02-17T06:52:22;8.80;99.90
52869;DHT22;39100;53.480;6.158;2023-02-17T06:54:47;8.90;99.90
52869;DHT22;39100;53.480;6.158;2023-02-17T06:57:13;8.80;99.90
52869;DHT22;39100;53.480;6.158;2023-02-17T06:59:38;8.90;99.90
52869;DHT22;39100;53.480;6.158;2023-02-17T07:02:04;8.90;99.90
52869;DHT22;39100;53.480;6.158;2023-02-17T07:04:30;8.90;99.90
52869;DHT22;39100;53.480;6.158;2023-02-17T07:06:56;8.90;99.90
52869;DHT22;39100;53.480;6.158;2023-02-17T07:09:22;8.90;99.90
52869;DHT22;39100;53.480;6.158;2023-02-17T07:11:47;9.00;99.90
52869;DHT22;39100;53.480;6.158;2023-02-17T07:14:15;9.00;99.90
52869;DHT22;39100;53.480;6.158;2023-02-17T07:16:41;9.00;99.90
52869;DHT22;39100;53.480;6.158;2023-02-17T07:19:06;9.00;99.90
52869;DHT22;39100;53.480;6.158;2023-02-17T07:21:32;9.10;99.90
52869;DHT22;39100;53.480;6.158;2023-02-17T07:23:57;9.10;99.90
52869;DHT22;39100;53.480;6.158;2023-02-17T07:26:23;9.10;99.90
52869;DHT22;39100;53.480;6.158;2023-02-17T07:28:48;9.10;99.90
52869;DHT22;39100;53.480;6.158;2023-02-17T07:31:16;9.10;99.90
52869;DHT22;39100;53.480;6.158;2023-02-17T07:33:42;9.10;99.90
52869;DHT22;39100;53.480;6.158;2023-02-17T07:36:13;9.10;99.90
52869;DHT22;39100;53.480;6.158;2023-02-17T07:38:39;9.10;99.90
52869;DHT22;39100;53.480;6.158;2023-02-17T07:41:11;9.10;99.90
52869;DHT22;39100;53.480;6.158;2023-02-17T07:43:37;9.20;99.90
52869;DHT22;39100;53.480;6.158;2023-02-17T07:46:04;9.20;99.90
52869;DHT22;39100;53.480;6.158;2023-02-17T07:48:29;9.20;99.90
52869;DHT22;39100;53.480;6.158;2023-02-17T07:50:55;9.20;99.90
52869;DHT22;39100;53.480;6.158;2023-02-17T07:53:21;9.20;99.90
52869;DHT22;39100;53.480;6.158;2023-02-17T07:55:47;9.30;99.90
52869;DHT22;39100;53.480;6.158;2023-02-17T07:58:13;9.30;99.90
52869;DHT22;39100;53.480;6.158;2023-02-17T08:00:38;9.30;99.90
52869;DHT22;39100;53.480;6.158;2023-02-17T08:03:04;9.30;99.90
52869;DHT22;39100;53.480;6.158;2023-02-17T08:05:30;9.30;99.90
52869;DHT22;39100;53.480;6.158;2023-02-17T08:07:55;9.30;99.90
52869;DHT22;39100;53.480;6.158;2023-02-17T08:10:39;9.40;99.90
52869;DHT22;39100;53.480;6.158;2023-02-17T08:13:25;9.40;99.90
52869;DHT22;39100;53.480;6.158;2023-02-17T08:15:51;9.40;99.90
52869;DHT22;39100;53.480;6.158;2023-02-17T08:18:17;9.40;99.90
52869;DHT22;39100;53.480;6.158;2023-02-17T08:20:42;9.40;99.90
52869;DHT22;39100;53.480;6.158;2023-02-17T08:23:08;9.40;99.90
52869;DHT22;39100;53.480;6.158;2023-02-17T08:25:34;9.50;99.90
52869;DHT22;39100;53.480;6.158;2023-02-17T08:28:02;9.50;99.90
52869;DHT22;39100;53.480;6.158;2023-02-17T08:30:29;9.50;99.90
52869;DHT22;39100;53.480;6.158;2023-02-17T08:32:55;10.90;99.90
52869;DHT22;39100;53.480;6.158;2023-02-17T08:35:21;9.60;99.90
52869;DHT22;39100;53.480;6.158;2023-02-17T08:37:50;9.60;99.90
52869;DHT22;39100;53.480;6.158;2023-02-17T08:40:16;9.60;99.90
52869;DHT22;39100;53.480;6.158;2023-02-17T08:42:42;9.60;99.90
52869;DHT22;39100;53.480;6.158;2023-02-17T08:45:08;9.60;99.90
52869;DHT22;39100;53.480;6.158;2023-02-17T08:47:34;9.60;99.90
52869;DHT22;39100;53.480;6.158;2023-02-17T08:50:00;9.60;99.90
52869;DHT22;39100;53.480;6.158;2023-02-17T08:52:26;9.60;99.90
52869;DHT22;39100;53.480;6.158;2023-02-17T08:54:52;9.60;99.90
52869;DHT22;39100;53.480;6.158;2023-02-17T08:57:17;9.70;99.90
52869;DHT22;39100;53.480;6.158;2023-02-17T08:59:43;9.60;99.90
52869;DHT22;39100;53.480;6.158;2023-02-17T09:02:12;9.70;99.90
52869;DHT22;39100;53.480;6.158;2023-02-17T09:04:38;9.70;99.90
52869;DHT22;39100;53.480;6.158;2023-02-17T09:07:04;9.70;99.90
52869;DHT22;39100;53.480;6.158;2023-02-17T09:09:33;9.70;99.90
52869;DHT22;39100;53.480;6.158;2023-02-17T09:11:59;9.70;99.90
52869;DHT22;39100;53.480;6.158;2023-02-17T09:14:25;9.70;99.90
52869;DHT22;39100;53.480;6.158;2023-02-17T09:16:51;9.70;99.90
52869;DHT22;39100;53.480;6.158;2023-02-17T09:19:17;9.80;99.90
52869;DHT22;39100;53.480;6.158;2023-02-17T09:21:43;9.80;99.90
52869;DHT22;39100;53.480;6.158;2023-02-17T09:24:08;9.80;99.90
52869;DHT22;39100;53.480;6.158;2023-02-17T09:26:34;9.80;99.90
52869;DHT22;39100;53.480;6.158;2023-02-17T09:29:02;9.80;99.90
52869;DHT22;39100;53.480;6.158;2023-02-17T09:31:29;9.80;99.90
52869;DHT22;39100;53.480;6.158;2023-02-17T09:33:57;9.90;99.90
52869;DHT22;39100;53.480;6.158;2023-02-17T09:36:31;9.90;99.90
52869;DHT22;39100;53.480;6.158;2023-02-17T09:38:57;9.90;99.90
52869;DHT22;39100;53.480;6.158;2023-02-17T09:41:32;9.90;99.90
52869;DHT22;39100;53.480;6.158;2023-02-17T09:43:59;9.80;99.90
52869;DHT22;39100;53.480;6.158;2023-02-17T09:46:39;9.80;99.90
52869;DHT22;39100;53.480;6.158;2023-02-17T09:49:13;9.80;99.90
52869;DHT22;39100;53.480;6.158;2023-02-17T09:57:12;9.70;99.90
52869;DHT22;39100;53.480;6.158;2023-02-17T09:59:56;9.70;99.90
52869;DHT22;39100;53.480;6.158;2023-02-17T10:02:30;9.80;99.90
52869;DHT22;39100;53.480;6.158;2023-02-17T10:05:03;9.80;99.90
52869;DHT22;39100;53.480;6.158;2023-02-17T10:07:35;9.70;99.90
52869;DHT22;39100;53.480;6.158;2023-02-17T10:10:10;9.80;99.90
52869;DHT22;39100;53.480;6.158;2023-02-17T10:12:44;9.70;99.90
52869;DHT22;39100;53.480;6.158;2023-02-17T10:15:24;9.70;99.90
52869;DHT22;39100;53.480;6.158;2023-02-17T10:17:59;9.70;99.90
52869;DHT22;39100;53.480;6.158;2023-02-17T10:20:38;9.70;99.90
52869;DHT22;39100;53.480;6.158;2023-02-17T10:23:23;9.70;99.90
52869;DHT22;39100;53.480;6.158;2023-02-17T10:28:51;9.80;99.90
52869;DHT22;39100;53.480;6.158;2023-02-17T10:37:07;9.70;99.90
52869;DHT22;39100;53.480;6.158;2023-02-17T10:42:28;9.70;99.90
52869;DHT22;39100;53.480;6.158;2023-02-17T10:45:05;9.70;99.90
52869;DHT22;39100;53.480;6.158;2023-02-17T10:47:36;9.70;99.90
52869;DHT22;39100;53.480;6.158;2023-02-17T10:50:27;9.70;99.90
52869;DHT22;39100;53.480;6.158;2023-02-17T10:52:52;9.70;99.90
52869;DHT22;39100;53.480;6.158;2023-02-17T10:55:23;9.80;99.90
52869;DHT22;39100;53.480;6.158;2023-02-17T10:57:54;9.90;99.90
52869;DHT22;39100;53.480;6.158;2023-02-17T11:00:22;9.90;99.90
52869;DHT22;39100;53.480;6.158;2023-02-17T11:02:49;9.90;99.90
52869;DHT22;39100;53.480;6.158;2023-02-17T11:07:56;10.00;99.90
52869;DHT22;39100;53.480;6.158;2023-02-17T11:10:32;10.10;99.90
52869;DHT22;39100;53.480;6.158;2023-02-17T11:12:58;10.20;99.90
52869;DHT22;39100;53.480;6.158;2023-02-17T11:15:36;10.30;99.90
52869;DHT22;39100;53.480;6.158;2023-02-17T11:18:18;10.40;99.90
52869;DHT22;39100;53.480;6.158;2023-02-17T11:20:45;10.50;99.90
52869;DHT22;39100;53.480;6.158;2023-02-17T11:25:40;10.50;99.90
52869;DHT22;39100;53.480;6.158;2023-02-17T11:28:19;10.50;99.90
52869;DHT22;39100;53.480;6.158;2023-02-17T11:30:55;10.50;99.90
52869;DHT22;39100;53.480;6.158;2023-02-17T11:33:34;10.60;99.90
52869;DHT22;39100;53.480;6.158;2023-02-17T11:36:00;10.50;99.90
52869;DHT22;39100;53.480;6.158;2023-02-17T11:38:42;10.50;99.90
52869;DHT22;39100;53.480;6.158;2023-02-17T11:41:09;10.50;99.90
52869;DHT22;39100;53.480;6.158;2023-02-17T11:43:36;10.50;99.90
52869;DHT22;39100;53.480;6.158;2023-02-17T11:46:17;10.60;99.90
52869;DHT22;39100;53.480;6.158;2023-02-17T11:49:14;10.60;99.90
52869;DHT22;39100;53.480;6.158;2023-02-17T11:51:54;10.70;99.90
52869;DHT22;39100;53.480;6.158;2023-02-17T11:54:30;10.70;99.90
52869;DHT22;39100;53.480;6.158;2023-02-17T11:57:27;10.80;99.90
52869;DHT22;39100;53.480;6.158;2023-02-17T12:03:13;10.70;99.90
52869;DHT22;39100;53.480;6.158;2023-02-17T12:11:39;10.70;99.90
52869;DHT22;39100;53.480;6.158;2023-02-17T12:14:48;10.70;99.90
52869;DHT22;39100;53.480;6.158;2023-02-17T12:22:56;10.60;99.90
52869;DHT22;39100;53.480;6.158;2023-02-17T12:25:32;10.60;99.90
52869;DHT22;39100;53.480;6.158;2023-02-17T12:28:48;10.60;99.90
52869;DHT22;39100;53.480;6.158;2023-02-17T12:30:58;10.60;99.90
52869;DHT22;39100;53.480;6.158;2023-02-17T12:33:37;10.60;99.90
52869;DHT22;39100;53.480;6.158;2023-02-17T12:36:09;10.60;99.90
52869;DHT22;39100;53.480;6.158;2023-02-17T12:38:42;10.60;99.90
52869;DHT22;39100;53.480;6.158;2023-02-17T12:41:16;10.70;99.90
52869;DHT22;39100;53.480;6.158;2023-02-17T12:43:54;10.70;99.90
52869;DHT22;39100;53.480;6.158;2023-02-17T12:46:28;10.70;99.90
52869;DHT22;39100;53.480;6.158;2023-02-17T12:54:29;10.70;99.90
52869;DHT22;39100;53.480;6.158;2023-02-17T12:57:12;10.80;99.90
52869;DHT22;39100;53.480;6.158;2023-02-17T12:59:44;10.80;99.90
52869;DHT22;39100;53.480;6.158;2023-02-17T13:02:20;10.80;99.90
52869;DHT22;39100;53.480;6.158;2023-02-17T13:04:51;10.80;99.90
52869;DHT22;39100;53.480;6.158;2023-02-17T13:10:26;11.10;99.90
52869;DHT22;39100;53.480;6.158;2023-02-17T13:13:23;11.20;99.90
52869;DHT22;39100;53.480;6.158;2023-02-17T13:16:04;11.30;99.90
52869;DHT22;39100;53.480;6.158;2023-02-17T13:18:33;11.50;99.90
52869;DHT22;39100;53.480;6.158;2023-02-17T13:23:41;11.40;99.90
52869;DHT22;39100;53.480;6.158;2023-02-17T13:28:47;11.30;99.90
52869;DHT22;39100;53.480;6.158;2023-02-17T13:31:24;11.40;99.90
52869;DHT22;39100;53.480;6.158;2023-02-17T13:33:55;11.60;99.90
52869;DHT22;39100;53.480;6.158;2023-02-17T13:36:34;12.00;99.90
52869;DHT22;39100;53.480;6.158;2023-02-17T13:39:28;12.40;99.90
52869;DHT22;39100;53.480;6.158;2023-02-17T13:41:53;12.70;99.90
52869;DHT22;39100;53.480;6.158;2023-02-17T13:44:28;12.90;99.90
52869;DHT22;39100;53.480;6.158;2023-02-17T13:47:23;13.00;99.90
52869;DHT22;39100;53.480;6.158;2023-02-17T13:49:52;12.80;99.90
52869;DHT22;39100;53.480;6.158;2023-02-17T13:52:22;12.60;99.90
52869;DHT22;39100;53.480;6.158;2023-02-17T13:54:56;12.60;99.90
52869;DHT22;39100;53.480;6.158;2023-02-17T13:57:29;12.30;99.90
52869;DHT22;39100;53.480;6.158;2023-02-17T14:07:52;12.00;99.90
52869;DHT22;39100;53.480;6.158;2023-02-17T14:10:23;11.90;99.90
52869;DHT22;39100;53.480;6.158;2023-02-17T14:12:50;11.80;99.90
52869;DHT22;39100;53.480;6.158;2023-02-17T14:15:22;11.90;99.90
52869;DHT22;39100;53.480;6.158;2023-02-17T14:17:47;11.70;99.90
52869;DHT22;39100;53.480;6.158;2023-02-17T14:20:33;11.80;99.90
52869;DHT22;39100;53.480;6.158;2023-02-17T14:23:12;11.70;99.90
52869;DHT22;39100;53.480;6.158;2023-02-17T14:25:40;11.60;99.90
52869;DHT22;39100;53.480;6.158;2023-02-17T14:28:24;11.50;99.90
52869;DHT22;39100;53.480;6.158;2023-02-17T14:30:51;11.40;99.90
52869;DHT22;39100;53.480;6.158;2023-02-17T14:33:21;11.30;99.90
52869;DHT22;39100;53.480;6.158;2023-02-17T14:38:25;11.10;99.90
52869;DHT22;39100;53.480;6.158;2023-02-17T14:40:52;11.10;99.90
52869;DHT22;39100;53.480;6.158;2023-02-17T14:43:20;11.00;99.90
52869;DHT22;39100;53.480;6.158;2023-02-17T14:45:46;10.90;99.90
52869;DHT22;39100;53.480;6.158;2023-02-17T14:48:12;10.90;99.90
52869;DHT22;39100;53.480;6.158;2023-02-17T14:50:37;10.90;99.90
52869;DHT22;39100;53.480;6.158;2023-02-17T14:53:30;10.80;99.90
52869;DHT22;39100;53.480;6.158;2023-02-17T14:56:02;10.70;99.90
52869;DHT22;39100;53.480;6.158;2023-02-17T14:58:31;10.70;99.90
52869;DHT22;39100;53.480;6.158;2023-02-17T15:00:56;10.60;99.90
52869;DHT22;39100;53.480;6.158;2023-02-17T15:03:23;10.50;99.90
52869;DHT22;39100;53.480;6.158;2023-02-17T15:05:49;10.40;99.90
52869;DHT22;39100;53.480;6.158;2023-02-17T15:08:18;10.40;99.90
52869;DHT22;39100;53.480;6.158;2023-02-17T15:10:45;10.40;99.90
52869;DHT22;39100;53.480;6.158;2023-02-17T15:13:16;10.30;99.90
52869;DHT22;39100;53.480;6.158;2023-02-17T15:15:42;10.30;99.90
52869;DHT22;39100;53.480;6.158;2023-02-17T15:18:10;10.30;99.90
52869;DHT22;39100;53.480;6.158;2023-02-17T15:20:37;10.20;99.90
52869;DHT22;39100;53.480;6.158;2023-02-17T15:23:13;10.20;99.90
52869;DHT22;39100;53.480;6.158;2023-02-17T15:25:39;10.10;99.90
52869;DHT22;39100;53.480;6.158;2023-02-17T15:28:04;10.00;99.90
52869;DHT22;39100;53.480;6.158;2023-02-17T15:30:30;10.00;99.90
52869;DHT22;39100;53.480;6.158;2023-02-17T15:32:56;9.90;99.90
52869;DHT22;39100;53.480;6.158;2023-02-17T15:35:25;9.90;99.90
52869;DHT22;39100;53.480;6.158;2023-02-17T15:37:51;9.80;99.90
52869;DHT22;39100;53.480;6.158;2023-02-17T15:40:19;9.60;99.90
52869;DHT22;39100;53.480;6.158;2023-02-17T15:42:48;9.60;99.90
52869;DHT22;39100;53.480;6.158;2023-02-17T15:45:16;9.50;99.90
52869;DHT22;39100;53.480;6.158;2023-02-17T15:47:44;9.50;99.90
52869;DHT22;39100;53.480;6.158;2023-02-17T15:50:21;9.40;99.90
52869;DHT22;39100;53.480;6.158;2023-02-17T15:52:48;9.30;99.90
52869;DHT22;39100;53.480;6.158;2023-02-17T15:55:15;9.30;99.90
52869;DHT22;39100;53.480;6.158;2023-02-17T15:57:49;9.20;99.90
52869;DHT22;39100;53.480;6.158;2023-02-17T16:00:19;9.10;99.90
52869;DHT22;39100;53.480;6.158;2023-02-17T16:02:46;9.10;99.90
52869;DHT22;39100;53.480;6.158;2023-02-17T16:05:13;9.00;99.90
52869;DHT22;39100;53.480;6.158;2023-02-17T16:07:39;9.00;99.90
52869;DHT22;39100;53.480;6.158;2023-02-17T16:10:05;8.90;99.90
52869;DHT22;39100;53.480;6.158;2023-02-17T16:12:31;8.90;99.90
52869;DHT22;39100;53.480;6.158;2023-02-17T16:14:57;8.80;99.90
52869;DHT22;39100;53.480;6.158;2023-02-17T16:17:24;8.80;99.90
52869;DHT22;39100;53.480;6.158;2023-02-17T16:19:50;8.80;99.90
52869;DHT22;39100;53.480;6.158;2023-02-17T16:22:16;8.80;99.90
52869;DHT22;39100;53.480;6.158;2023-02-17T16:24:41;8.70;99.90
52869;DHT22;39100;53.480;6.158;2023-02-17T16:27:10;8.60;99.90
52869;DHT22;39100;53.480;6.158;2023-02-17T16:29:37;8.60;99.90
52869;DHT22;39100;53.480;6.158;2023-02-17T16:32:03;8.60;99.90
52869;DHT22;39100;53.480;6.158;2023-02-17T16:34:28;8.60;99.90
52869;DHT22;39100;53.480;6.158;2023-02-17T16:37:00;8.60;99.90
52869;DHT22;39100;53.480;6.158;2023-02-17T16:39:27;8.60;99.90
52869;DHT22;39100;53.480;6.158;2023-02-17T16:41:52;8.60;99.90
52869;DHT22;39100;53.480;6.158;2023-02-17T16:44:20;8.50;99.90
52869;DHT22;39100;53.480;6.158;2023-02-17T16:46:48;8.50;99.90
52869;DHT22;39100;53.480;6.158;2023-02-17T16:49:27;8.50;99.90
52869;DHT22;39100;53.480;6.158;2023-02-17T16:52:04;8.50;99.90
52869;DHT22;39100;53.480;6.158;2023-02-17T16:54:30;8.40;99.90
52869;DHT22;39100;53.480;6.158;2023-02-17T16:56:56;8.40;99.90
52869;DHT22;39100;53.480;6.158;2023-02-17T16:59:23;8.40;99.90
52869;DHT22;39100;53.480;6.158;2023-02-17T17:01:51;8.40;99.90
52869;DHT22;39100;53.480;6.158;2023-02-17T17:04:18;8.30;99.90
52869;DHT22;39100;53.480;6.158;2023-02-17T17:06:49;8.40;99.90
52869;DHT22;39100;53.480;6.158;2023-02-17T17:09:22;8.30;99.90
52869;DHT22;39100;53.480;6.158;2023-02-17T17:11:48;8.30;99.90
52869;DHT22;39100;53.480;6.158;2023-02-17T17:14:14;8.30;99.90